Tiempo atmosférico en la estación meteorológica de Almudébar, Huesca (390 m.)



Fecha
DESCASC
Temp. máxima en grados centígrados (hora)
DESCASC
Temp. mínima en grados centígrados (hora)
DESCASC
Temp. media en grados centígrados
DESCASC
Racha de viento máxima en m/sg (hora)
DESCASC
Velocidad máxima media en intervalos de 10 minutos(hora)
DESCASC
Precipitaciones diarias en mm
DESCASC
Precipitaciones de 00:00 a 06:00 en mm
DESCASC
Precipitaciones de 06:00 a 12:00 en mm
DESCASC
Precipitaciones de 12:00 a 18:00 en mm
DESCASC
Precipitaciones de 18:00 a 24:00 en mm
DESCASC

Gráficas

Temp. máximas Temp. mínimas Temp. medias Precipitaciones Rachas de viento máximas Velocidades máximas media en intervalos de 10 minutos

Datos horarios

Fecha y hora oficial Temperatura (ºC) Velocidad del viento (km/h) Dirección del viento Racha (km/h) Dirección de racha Precipitación (mm) Presión (hPa) Tendencia (hPa) Humedad (%)
2019-12-15 23:00:00 6.8 9 Este 15 Este 0 -- -- 87
2019-12-15 22:00:00 7.3 6 Este 12 Nordeste 0 -- -- 83
2019-12-15 21:00:00 8.2 9 Este 14 Nordeste 0 -- -- 80
2019-12-15 20:00:00 8.1 3 Nordeste 9 Nordeste 0 -- -- 80
2019-12-15 19:00:00 9.1 6 Este 10 Nordeste 0 -- -- 76
2019-12-15 18:00:00 10.9 3 Sudeste 5 Sudeste 0 -- -- 68
2019-12-15 17:00:00 13.4 3 Sur 15 Sudoeste 0 -- -- 62
2019-12-15 16:00:00 14.8 13 Sudoeste 22 Sudoeste 0 -- -- 55
2019-12-15 15:00:00 15.3 16 Sudoeste 28 Sudoeste 0 -- -- 55
2019-12-15 14:00:00 14.9 15 Sudoeste 26 Sudoeste 0 -- -- 58
2019-12-15 13:00:00 14.2 11 Sudoeste 17 Sudoeste 0 -- -- 62
2019-12-15 12:00:00 12.4 9 Sudoeste 14 Sudoeste 0 -- -- 70
2019-12-15 11:00:00 9.7 6 Noroeste 11 Noroeste 0 -- -- 81
2019-12-15 10:00:00 6 3 Noroeste 5 Noroeste 0 -- -- 99
2019-12-15 09:00:00 1.6 0 Calma 4 Norte 0 -- -- 97
2019-12-15 08:00:00 1.2 0 Calma 3 Sudoeste 0 -- -- 96
2019-12-15 07:00:00 2 0 Calma 3 Nordeste 0 -- -- 95
2019-12-15 06:00:00 2 0 Calma 3 Noroeste 0 -- -- 94
2019-12-15 05:00:00 3.5 3 Norte 5 Noroeste 0 -- -- 96
2019-12-15 04:00:00 3.1 2 Oeste -- -- 0 -- -- 95
2019-12-15 03:00:00 3.3 2 Nordeste 4 Sudeste 0 -- -- 94
2019-12-15 02:00:00 3.5 4 Norte 7 Noroeste 0 -- -- 94
2019-12-15 01:00:00 3.8 2 Norte 5 Noroeste 0 -- -- 91
2019-12-15 00:00:00 5 3 Nordeste 8 Nordeste 0 -- -- 91
2019-12-14 23:00:00 6.5 7 Nordeste 9 Nordeste 0 -- -- 87
2019-12-14 22:00:00 6.7 4 Sur 9 Sur 0 -- -- 86
2019-12-14 21:00:00 8.4 0 Calma 8 Sudoeste 0 -- -- 80
2019-12-14 20:00:00 8.2 4 Sur 8 Sudoeste 0 -- -- 84
2019-12-14 19:00:00 8.6 3 Noroeste 13 Oeste 0 -- -- 80
2019-12-14 18:00:00 11.1 5 Oeste 10 Oeste 0 -- -- 71
2019-12-14 17:00:00 13.8 8 Oeste 17 Sudoeste 0 -- -- 63
2019-12-14 16:00:00 14.9 9 Oeste 27 Oeste 0 -- -- 59
2019-12-14 15:00:00 15.1 15 Oeste 30 Oeste 0 -- -- 59
2019-12-14 14:00:00 14.9 14 Oeste 33 Oeste 0 -- -- 61
2019-12-14 13:00:00 14.1 16 Oeste 34 Noroeste 0 -- -- 63
2019-12-14 12:00:00 12.9 15 Oeste 27 Oeste 0 -- -- 69
2019-12-14 11:00:00 11.5 11 Oeste 25 Oeste 0 -- -- 73
2019-12-14 10:00:00 10.3 9 Oeste 22 Oeste 0 -- -- 77
2019-12-14 09:00:00 8.7 10 Oeste 21 Oeste 0 -- -- 81
2019-12-14 08:00:00 8.5 10 Oeste 21 Oeste 0 -- -- 81
2019-12-14 07:00:00 8.3 12 Oeste 26 Oeste 0 -- -- 83
2019-12-14 06:00:00 9.2 17 Oeste 30 Noroeste 0 -- -- 82
2019-12-14 05:00:00 9.2 16 Sudoeste 31 Oeste 0 -- -- 83
2019-12-14 04:00:00 9.7 15 Oeste 27 Sudoeste 0 -- -- 82
2019-12-14 03:00:00 9.3 14 Sudoeste 27 Oeste 0 -- -- 88
2019-12-14 02:00:00 9.7 11 Oeste 18 Sudoeste 0 -- -- 91
2019-12-14 01:00:00 9.7 9 Oeste 20 Sudoeste 0 -- -- 90
2019-12-14 00:00:00 9.7 13 Sudoeste 27 Noroeste 0 -- -- 89
2019-12-13 23:00:00 10.5 7 Oeste 14 Oeste 0 -- -- 88
2019-12-13 22:00:00 12.4 9 Oeste 28 Noroeste 0 -- -- 81
2019-12-13 21:00:00 13.1 21 Noroeste 30 Oeste 0 -- -- 79
2019-12-13 20:00:00 13.6 20 Oeste 44 Oeste 0 -- -- 81
2019-12-13 19:00:00 13.9 20 Oeste 49 Oeste 0 -- -- 80
2019-12-13 18:00:00 13.4 32 Oeste 52 Oeste 0 -- -- 82
2019-12-13 17:00:00 14 26 Oeste 50 Oeste 0 -- -- 77
2019-12-13 16:00:00 15 31 Oeste 58 Noroeste 0 -- -- 74
2019-12-13 15:00:00 15.2 37 Oeste 74 Oeste 0 -- -- 75
2019-12-13 14:00:00 14.9 38 Oeste 68 Oeste 0 -- -- 77
2019-12-13 13:00:00 15.2 39 Oeste 68 Oeste 0 -- -- 77
2019-12-13 12:00:00 14.1 38 Oeste 69 Oeste 0 -- -- 81
2019-12-13 11:00:00 13.4 40 Oeste 69 Oeste 0 -- -- 84
2019-12-13 10:00:00 13.3 39 Oeste 77 Oeste 0 -- -- 83
2019-12-13 09:00:00 13 43 Oeste 69 Oeste 0.2 -- -- 85
2019-12-13 08:00:00 10.8 15 Oeste 36 Oeste 0 -- -- 94
2019-12-13 07:00:00 10.3 16 Oeste 27 Oeste 0.2 -- -- 97
2019-12-13 06:00:00 9.7 13 Oeste 27 Oeste 0.2 -- -- 97
2019-12-13 05:00:00 9.2 12 Oeste 29 Oeste 0 -- -- 98
2019-12-13 04:00:00 9 10 Oeste 20 Oeste 0.2 -- -- 98
2019-12-13 03:00:00 8.4 7 Oeste 14 Oeste 0.8 -- -- 98
2019-12-13 02:00:00 6.6 4 Oeste 8 Oeste 0.8 -- -- 98
2019-12-13 01:00:00 5.7 4 Noroeste 6 Noroeste 1.2 -- -- 98
2019-12-13 00:00:00 5.6 3 Oeste 6 Oeste 1 -- -- 97
2019-12-12 23:00:00 5.7 5 Oeste 7 Oeste 0.8 -- -- 97
2019-12-12 22:00:00 5.9 2 Noroeste 5 Norte 0.6 -- -- 96
2019-12-12 21:00:00 6.2 4 Norte 6 Norte 0.6 -- -- 96
2019-12-12 20:00:00 6.6 2 Noroeste 5 Sudoeste 1 -- -- 96
2019-12-12 19:00:00 6.8 3 Sudoeste 9 Sudoeste 2.2 -- -- 96
2019-12-12 18:00:00 7 4 Sudoeste 12 Sudoeste 2.2 -- -- 95
2019-12-12 17:00:00 7.2 7 Sudoeste 14 Sudoeste 2 -- -- 94
2019-12-12 16:00:00 7.7 9 Sudoeste 17 Sudoeste 1.6 -- -- 90
2019-12-12 15:00:00 -- -- -- -- -- -- -- -- --
2019-12-12 14:00:00 8.6 7 Noroeste 17 Noroeste 0 -- -- 73
2019-12-12 13:00:00 8.9 12 Noroeste 21 Oeste 0 -- -- 71
2019-12-12 12:00:00 9.1 12 Oeste 26 Oeste 0 -- -- 73
2019-12-12 11:00:00 8.9 14 Oeste 27 Oeste 0 -- -- 72
2019-12-12 10:00:00 6.8 9 Noroeste 18 Oeste 0 -- -- 80
2019-12-12 09:00:00 6.1 10 Oeste 19 Oeste 0 -- -- 83
2019-12-12 08:00:00 5.6 9 Oeste 19 Oeste 0 -- -- 82
2019-12-12 07:00:00 5.6 10 Oeste 24 Oeste 0 -- -- 84
2019-12-12 06:00:00 5.7 9 Oeste 21 Oeste 0 -- -- 84
2019-12-12 05:00:00 5.6 15 Oeste 23 Oeste 0 -- -- 84
2019-12-12 04:00:00 5.1 10 Oeste 21 Oeste 0 -- -- 86
2019-12-12 03:00:00 4.9 11 Oeste 20 Oeste 0 -- -- 87
2019-12-12 02:00:00 4.4 10 Oeste 17 Oeste 0 -- -- 87
2019-12-12 01:00:00 4.3 8 Noroeste 15 Noroeste 0 -- -- 87
2019-12-12 00:00:00 4.9 10 Noroeste 19 Oeste 0 -- -- 86
2019-12-11 23:00:00 5.7 13 Oeste 24 Oeste 0 -- -- 83
2019-12-11 22:00:00 5.4 6 Oeste 17 Oeste 0 -- -- 82
2019-12-11 21:00:00 4.4 8 Noroeste 14 Oeste 0 -- -- 85
2019-12-11 20:00:00 4.8 9 Noroeste 15 Oeste 0 -- -- 80
2019-12-11 19:00:00 6.5 9 Oeste 39 Oeste 0 -- -- 72
2019-12-11 18:00:00 7.6 24 Noroeste 58 Noroeste 0 -- -- 68
2019-12-11 17:00:00 9 32 Oeste 49 Oeste 0 -- -- 63
2019-12-11 16:00:00 10.2 35 Noroeste 57 Oeste 0 -- -- 61
2019-12-11 15:00:00 11 37 Noroeste 55 Oeste 0.2 -- -- 64
2019-12-11 14:00:00 9 24 Oeste 51 Oeste 0 -- -- 85
2019-12-11 13:00:00 7.3 25 Oeste 49 Oeste 0 -- -- 90
2019-12-11 12:00:00 6.1 13 Oeste 30 Oeste 0.4 -- -- 88
2019-12-11 11:00:00 7.3 8 Oeste 13 Noroeste 0 -- -- 86
2019-12-11 10:00:00 4.3 2 Oeste 4 Oeste 0 -- -- 96
2019-12-11 09:00:00 1.2 2 Noroeste 5 Sudeste 0 -- -- 96
2019-12-11 08:00:00 0.9 0 Calma 5 Nordeste 0 -- -- 94
2019-12-11 07:00:00 1.4 3 Sudeste 6 Sudoeste 0 -- -- 92
2019-12-11 06:00:00 1.9 2 Este 5 Este 0 -- -- 93
2019-12-11 05:00:00 3.1 4 Nordeste 8 Norte 0 -- -- 91
2019-12-11 04:00:00 3.6 0 Calma 5 Sur 0 -- -- 90
2019-12-11 03:00:00 4.4 2 Sudoeste 5 Noroeste 0 -- -- 88
2019-12-11 02:00:00 4 2 Sudoeste 9 Noroeste 0 -- -- 88
2019-12-11 01:00:00 4.6 0 Calma 9 Noroeste 0 -- -- 84
2019-12-11 00:00:00 5.2 3 Noroeste 10 Noroeste 0 -- -- 83
2019-12-10 23:00:00 6.2 8 Noroeste 13 Noroeste 0 -- -- 81
2019-12-10 22:00:00 7.2 6 Oeste 15 Oeste 0 -- -- 77
2019-12-10 21:00:00 8.2 9 Oeste 14 Oeste 0 -- -- 77
2019-12-10 20:00:00 8.8 9 Oeste 18 Oeste 0 -- -- 76
2019-12-10 19:00:00 9.7 8 Oeste 22 Oeste 0 -- -- 72
2019-12-10 18:00:00 10.7 7 Oeste 21 Oeste 0 -- -- 65
2019-12-10 17:00:00 12.1 7 Oeste 23 Oeste 0 -- -- 62
2019-12-10 16:00:00 13.1 13 Oeste 30 Oeste 0 -- -- 58
2019-12-10 15:00:00 13.5 14 Oeste 36 Oeste 0 -- -- 57
2019-12-10 14:00:00 12.8 22 Oeste 41 Oeste 0 -- -- 60
2019-12-10 13:00:00 11.9 25 Oeste 41 Oeste 0 -- -- 63
2019-12-10 12:00:00 9.8 17 Oeste 35 Oeste 0 -- -- 71
2019-12-10 11:00:00 7.6 24 Oeste 42 Noroeste 0 -- -- 78
2019-12-10 10:00:00 7.5 19 Oeste 42 Oeste 0 -- -- 81
2019-12-10 09:00:00 6.1 22 Oeste 38 Oeste 0 -- -- 87
2019-12-10 08:00:00 5.9 19 Oeste 37 Oeste 0 -- -- 89
2019-12-10 07:00:00 6.1 14 Sudoeste 38 Oeste 0 -- -- 88
2019-12-10 06:00:00 6.3 17 Oeste 39 Oeste 0 -- -- 85
2019-12-10 05:00:00 6.7 22 Oeste 40 Oeste 0 -- -- 84
2019-12-10 04:00:00 7.3 23 Oeste 37 Oeste 0 -- -- 81
2019-12-10 03:00:00 6.7 17 Oeste 31 Oeste 0 -- -- 82
2019-12-10 02:00:00 7.1 13 Oeste 31 Oeste 0 -- -- 80
2019-12-10 01:00:00 8.4 21 Oeste 50 Oeste 0 -- -- 74
2019-12-10 00:00:00 8.2 22 Oeste 51 Oeste 0 -- -- 76
2019-12-09 23:00:00 8.2 23 Oeste 53 Oeste 0 -- -- 78
2019-12-09 22:00:00 7.9 27 Oeste 54 Oeste 0 -- -- 80
2019-12-09 21:00:00 7.6 28 Oeste 48 Oeste 0 -- -- 81
2019-12-09 20:00:00 8.5 28 Oeste 60 Noroeste 0 -- -- 73
2019-12-09 19:00:00 9 38 Noroeste 55 Noroeste 0 -- -- 70
2019-12-09 18:00:00 9.7 34 Noroeste 54 Noroeste 0 -- -- 66
2019-12-09 17:00:00 10.9 35 Noroeste 70 Noroeste 0 -- -- 58
2019-12-09 16:00:00 11.9 40 Noroeste 66 Noroeste 0 -- -- 56
2019-12-09 15:00:00 11.5 35 Oeste 57 Oeste 0 -- -- 68
2019-12-09 14:00:00 11.5 33 Oeste 56 Oeste 0 -- -- 73
2019-12-09 13:00:00 10.7 32 Oeste 60 Oeste 0 -- -- 75
2019-12-09 12:00:00 9.8 28 Oeste 50 Noroeste 0 -- -- 76
2019-12-09 11:00:00 8.2 23 Oeste 50 Oeste 0 -- -- 80
2019-12-09 10:00:00 6.9 26 Oeste 42 Oeste 0 -- -- 84
2019-12-09 09:00:00 6.3 22 Oeste 39 Oeste 0 -- -- 84
2019-12-09 08:00:00 5.1 13 Oeste 30 Oeste 0 -- -- 88
2019-12-09 07:00:00 5 13 Oeste 25 Oeste 0 -- -- 91
2019-12-09 06:00:00 4.8 3 Norte 19 Oeste 0 -- -- 89
2019-12-09 05:00:00 5.5 5 Oeste 23 Oeste 0 -- -- 86
2019-12-09 04:00:00 6.6 11 Oeste 26 Oeste 0 -- -- 82
2019-12-09 03:00:00 6.4 12 Oeste 30 Oeste 0 -- -- 83
2019-12-09 02:00:00 7.1 13 Oeste 33 Oeste 0 -- -- 83
2019-12-09 01:00:00 8 22 Oeste 41 Noroeste 0 -- -- 82
2019-12-09 00:00:00 8.3 26 Noroeste 40 Noroeste 0 -- -- 84
2019-12-08 23:00:00 8.9 22 Oeste 36 Oeste 0 -- -- 87
2019-12-08 22:00:00 9 10 Oeste 31 Oeste 0 -- -- 89
2019-12-08 21:00:00 8.5 19 Oeste 37 Oeste 0 -- -- 96
2019-12-08 20:00:00 8.5 16 Oeste 33 Oeste 0 -- -- 96
2019-12-08 19:00:00 8.3 16 Oeste 31 Oeste 0.4 -- -- 96
2019-12-08 18:00:00 8.5 12 Oeste 24 Oeste 0.4 -- -- 94
2019-12-08 17:00:00 8.9 8 Oeste 22 Oeste 0.4 -- -- 92
2019-12-08 16:00:00 10.1 10 Oeste 23 Oeste 0 -- -- 82
2019-12-08 15:00:00 10.2 11 Oeste 27 Sudoeste 0 -- -- 81
2019-12-08 14:00:00 9.8 20 Sudoeste 26 Sudoeste 0 -- -- 84
2019-12-08 13:00:00 7.9 11 Oeste 20 Oeste 0 -- -- 99
2019-12-08 12:00:00 6.6 14 Sudoeste 18 Sudoeste 0 -- -- 100
2019-12-08 11:00:00 4.5 5 Oeste 10 Oeste 0 -- -- 100
2019-12-08 10:00:00 3.2 4 Oeste 8 Noroeste 0 -- -- 100
2019-12-08 09:00:00 2.7 2 Oeste 4 Oeste 0 -- -- 99
2019-12-08 08:00:00 2.7 0 Calma 2 Este 0.2 -- -- 99
2019-12-08 07:00:00 2.8 0 Calma 6 Noroeste 0 -- -- 99
2019-12-08 06:00:00 3.4 3 Noroeste 4 Noroeste 0 -- -- 99
2019-12-08 05:00:00 3.7 0 Calma 2 Nordeste 0 -- -- 99
2019-12-08 04:00:00 3.8 0 Calma 3 Nordeste 0 -- -- 99
2019-12-08 03:00:00 3.9 0 Calma 5 Este 0 -- -- 99
2019-12-08 02:00:00 3.8 3 Este 8 Este 0 -- -- 99
2019-12-08 01:00:00 3.8 6 Este 12 Sudeste 0 -- -- 98
2019-12-08 00:00:00 4 9 Este 15 Este 0 -- -- 98
2019-12-07 23:00:00 3.9 8 Este 12 Este 0 -- -- 98
2019-12-07 22:00:00 4.2 8 Este 15 Este 0 -- -- 97
2019-12-07 21:00:00 4.4 6 Este 12 Este 0 -- -- 97
2019-12-07 20:00:00 5.3 5 Este 9 Este 0 -- -- 96
2019-12-07 19:00:00 5.5 5 Este 15 Sudeste 0 -- -- 94
2019-12-07 18:00:00 9.2 3 Noroeste 5 Noroeste 0 -- -- 81
2019-12-07 17:00:00 11.4 4 Noroeste 17 Noroeste 0 -- -- 74
2019-12-07 16:00:00 12 10 Oeste 20 Oeste 0 -- -- 71
2019-12-07 15:00:00 12.2 9 Oeste 17 Oeste 0 -- -- 71
2019-12-07 14:00:00 11.7 10 Sudoeste 18 Oeste 0 -- -- 74
2019-12-07 13:00:00 10.6 9 Oeste 15 Sudoeste 0 -- -- 78
2019-12-07 12:00:00 8.7 6 Oeste 11 Oeste 0 -- -- 89
2019-12-07 11:00:00 6 2 Oeste 6 Oeste 0 -- -- 98
2019-12-07 10:00:00 2.8 3 Noroeste 4 Sur 0 -- -- 99
2019-12-07 09:00:00 0.2 0 Calma 4 Noroeste 0 -- -- 98
2019-12-07 08:00:00 -0.3 0 Calma 2 Noroeste 0 -- -- 98
2019-12-07 07:00:00 0.2 0 Calma 5 Noroeste 0 -- -- 97
2019-12-07 06:00:00 -0.2 2 Noroeste 3 Noroeste 0 -- -- 97
2019-12-07 05:00:00 0.6 0 Calma 3 Norte 0 -- -- 96
2019-12-07 04:00:00 1.8 2 Norte 4 Noroeste 0 -- -- 97
2019-12-07 03:00:00 1.9 4 Noroeste 8 Noroeste 0 -- -- 96
2019-12-07 02:00:00 1.4 0 Calma 5 Noroeste 0 -- -- 96
2019-12-07 01:00:00 2.4 2 Noroeste 4 Noroeste 0 -- -- 96
2019-12-07 00:00:00 3.1 2 Noroeste 9 Noroeste 0 -- -- 95
2019-12-06 23:00:00 3.6 0 Calma 5 Sudeste 0 -- -- 94
2019-12-06 22:00:00 4.9 3 Noroeste 9 Noroeste 0 -- -- 90
2019-12-06 21:00:00 5.9 6 Noroeste 8 Noroeste 0 -- -- 91
2019-12-06 20:00:00 7.1 0 Calma 3 Noroeste 0 -- -- 89
2019-12-06 19:00:00 8.5 0 Calma 4 Sudoeste 0 -- -- 83
2019-12-06 18:00:00 10.7 2 Sudoeste 9 Sudoeste 0 -- -- 76
2019-12-06 17:00:00 13.2 7 Sudoeste 11 Sudoeste 0 -- -- 67
2019-12-06 16:00:00 14.8 9 Sudoeste 13 Sudoeste 0 -- -- 62
2019-12-06 15:00:00 15.4 4 Sur 9 Sur 0 -- -- 59
2019-12-06 14:00:00 14.7 0 Calma 11 Sur 0 -- -- 63
2019-12-06 13:00:00 13.7 5 Sudoeste 14 Sudoeste 0 -- -- 66
2019-12-06 12:00:00 12.4 4 Oeste 11 Noroeste 0 -- -- 73
2019-12-06 11:00:00 9.5 5 Noroeste 10 Noroeste 0 -- -- 80
2019-12-06 10:00:00 7.3 7 Noroeste 10 Noroeste 0 -- -- 89
2019-12-06 09:00:00 5.5 3 Oeste 8 Sudoeste 0 -- -- 95
2019-12-06 08:00:00 5.6 3 Noroeste 6 Noroeste 0 -- -- 96
2019-12-06 07:00:00 5.1 4 Noroeste 6 Noroeste 0 -- -- 96
2019-12-06 06:00:00 4 2 Oeste 9 Noroeste 0 -- -- 94
2019-12-06 05:00:00 5.3 4 Noroeste 9 Oeste 0 -- -- 93
2019-12-06 04:00:00 6.2 4 Noroeste 6 Noroeste 0 -- -- 92
2019-12-06 03:00:00 5.9 2 Noroeste 4 Noroeste 0 -- -- 94
2019-12-06 02:00:00 5.8 3 Oeste 7 Noroeste 0 -- -- 92
2019-12-06 01:00:00 6.6 5 Noroeste 7 Noroeste 0 -- -- 92
2019-12-06 00:00:00 6.6 4 Noroeste 13 Oeste 0 -- -- 92
2019-12-05 23:00:00 6.4 4 Noroeste 10 Oeste 0 -- -- 90
2019-12-05 22:00:00 6.6 2 Norte 5 Noroeste 0 -- -- 91
2019-12-05 21:00:00 6.5 3 Noroeste 6 Noroeste 0 -- -- 87
2019-12-05 20:00:00 8 2 Oeste 10 Oeste 0 -- -- 82
2019-12-05 19:00:00 9.2 5 Oeste 12 Oeste 0 -- -- 78
2019-12-05 18:00:00 10.4 4 Oeste 16 Oeste 0 -- -- 76
2019-12-05 17:00:00 11.6 9 Oeste 24 Oeste 0 -- -- 74
2019-12-05 16:00:00 12.5 14 Oeste 29 Oeste 0 -- -- 69
2019-12-05 15:00:00 12 17 Oeste 33 Oeste 0.2 -- -- 72
2019-12-05 14:00:00 10.2 17 Oeste 32 Oeste 0 -- -- 76
2019-12-05 13:00:00 9.8 18 Oeste 27 Oeste 0 -- -- 77
2019-12-05 12:00:00 9.9 17 Oeste 28 Oeste 0 -- -- 79
2019-12-05 11:00:00 8.6 13 Oeste 24 Noroeste 0 -- -- 85
2019-12-05 10:00:00 6.7 7 Oeste 21 Oeste 0 -- -- 92
2019-12-05 09:00:00 6.3 9 Noroeste 16 Oeste 0 -- -- 93
2019-12-05 08:00:00 6.1 10 Noroeste 15 Oeste 0 -- -- 94
2019-12-05 07:00:00 6 9 Noroeste 13 Noroeste 0.2 -- -- 95
2019-12-05 06:00:00 6 6 Noroeste 11 Noroeste 0.4 -- -- 95
2019-12-05 05:00:00 6.4 8 Noroeste 14 Oeste 0.4 -- -- 93
2019-12-05 04:00:00 6.4 4 Noroeste 16 Noroeste 0.2 -- -- 94
2019-12-05 03:00:00 6.2 7 Oeste 17 Oeste 0.2 -- -- 94
2019-12-05 02:00:00 6.2 12 Noroeste 17 Noroeste 0.2 -- -- 94
2019-12-05 01:00:00 6.7 6 Norte 21 Noroeste 0.2 -- -- 92
2019-12-05 00:00:00 6.9 13 Noroeste 20 Noroeste 0 -- -- 90
2019-12-04 23:00:00 6.4 6 Oeste 14 Noroeste 0 -- -- 91
2019-12-04 22:00:00 5.3 2 Noroeste 4 Sudoeste 0 -- -- 95
2019-12-04 21:00:00 5.7 2 Oeste 9 Oeste 0 -- -- 93
2019-12-04 20:00:00 6.2 5 Sur 12 Oeste 0 -- -- 93
2019-12-04 19:00:00 6.5 2 Sudeste 6 Este 0 -- -- 90
2019-12-04 18:00:00 6.9 3 Oeste 10 Sudoeste 0 -- -- 90
2019-12-04 17:00:00 7.8 5 Oeste 17 Oeste 0 -- -- 86
2019-12-04 16:00:00 7.7 8 Oeste 17 Sudoeste 0 -- -- 87
2019-12-04 15:00:00 7.4 9 Sudoeste 16 Oeste 0.2 -- -- 90
2019-12-04 14:00:00 7 7 Oeste 17 Noroeste 0.2 -- -- 86
2019-12-04 13:00:00 7.1 8 Sudoeste 17 Oeste 0 -- -- 81
2019-12-04 12:00:00 7.2 10 Noroeste 15 Oeste 0 -- -- 80
2019-12-04 11:00:00 7.2 6 Oeste 14 Noroeste 0 -- -- 81
2019-12-04 10:00:00 4.6 6 Oeste 13 Oeste 0 -- -- 91
2019-12-04 09:00:00 2.2 6 Noroeste 18 Oeste 0 -- -- 94
2019-12-04 08:00:00 2.5 7 Noroeste 14 Oeste 0 -- -- 95
2019-12-04 07:00:00 2.2 7 Noroeste 12 Oeste 0 -- -- 97
2019-12-04 06:00:00 0.6 0 Calma 9 Noroeste 0 -- -- 95
2019-12-04 05:00:00 0.9 3 Noroeste 6 Oeste 0 -- -- 95
2019-12-04 04:00:00 1.2 8 Noroeste 10 Noroeste 0 -- -- 95
2019-12-04 03:00:00 1.6 0 Calma 9 Noroeste 0 -- -- 94
2019-12-04 02:00:00 2.1 5 Noroeste 8 Noroeste 0 -- -- 96
2019-12-04 01:00:00 2 3 Noroeste 6 Oeste 0 -- -- 96
2019-12-04 00:00:00 1.7 3 Oeste 5 Oeste 0 -- -- 94
2019-12-03 23:00:00 2.7 0 Calma 7 Norte 0 -- -- 91
2019-12-03 22:00:00 2.4 3 Noroeste 5 Noroeste 0 -- -- 94
2019-12-03 21:00:00 2.9 2 Noroeste 5 Oeste 0 -- -- 93
2019-12-03 20:00:00 3.3 2 Noroeste 4 Oeste 0 -- -- 92
2019-12-03 19:00:00 4.1 4 Sudoeste 4 Sudoeste 0 -- -- 87
2019-12-03 18:00:00 5.1 0 Calma 9 Este 0 -- -- 85
2019-12-03 17:00:00 5.5 4 Sudeste 8 Este 0 -- -- 84
2019-12-03 16:00:00 5.7 5 Este 12 Este 0 -- -- 82
2019-12-03 15:00:00 5.5 6 Este 12 Sudeste 0 -- -- 82
2019-12-03 14:00:00 5.2 7 Este 13 Este 0 -- -- 85
2019-12-03 13:00:00 5.1 6 Este 12 Este 0 -- -- 86
2019-12-03 12:00:00 5.2 7 Este 14 Este 0 -- -- 86
2019-12-03 11:00:00 4.3 11 Este 16 Este 0 -- -- 86
2019-12-03 10:00:00 2.6 3 Nordeste 6 Noroeste 0 -- -- 90
2019-12-03 09:00:00 0.4 4 Nordeste 7 Noroeste 0 -- -- 94
2019-12-03 08:00:00 0 3 Noroeste 8 Noroeste 0 -- -- 93
2019-12-03 07:00:00 0.8 4 Oeste 13 Oeste 0 -- -- 93
2019-12-03 06:00:00 1.2 4 Oeste 18 Oeste 0 -- -- 92
2019-12-03 05:00:00 1.8 9 Noroeste 19 Oeste 0 -- -- 91
2019-12-03 04:00:00 2.2 9 Oeste 18 Noroeste 0 -- -- 90
2019-12-03 03:00:00 2.6 8 Oeste 26 Oeste 0 -- -- 89
2019-12-03 02:00:00 3 13 Oeste 26 Oeste 0 -- -- 88
2019-12-03 01:00:00 3.5 15 Oeste 28 Noroeste 0 -- -- 87
2019-12-03 00:00:00 3.8 15 Oeste 31 Oeste 0 -- -- 87
2019-12-02 23:00:00 4.2 17 Oeste 38 Oeste 0 -- -- 88
2019-12-02 22:00:00 4.5 19 Oeste 35 Oeste 0 -- -- 88
2019-12-02 21:00:00 5.1 17 Oeste 32 Oeste 0 -- -- 87
2019-12-02 20:00:00 6.2 14 Oeste 28 Oeste 0 -- -- 82
2019-12-02 19:00:00 7.6 13 Oeste 22 Noroeste 0 -- -- 79
2019-12-02 18:00:00 9.2 7 Sudoeste 15 Oeste 0 -- -- 73
2019-12-02 17:00:00 12.3 7 Oeste 19 Oeste 0 -- -- 62
2019-12-02 16:00:00 13.3 10 Oeste 24 Oeste 0 -- -- 57
2019-12-02 15:00:00 13.3 11 Oeste 21 Sudoeste 0 -- -- 56
2019-12-02 14:00:00 12.5 10 Oeste 18 Oeste 0 -- -- 60
2019-12-02 13:00:00 11.1 10 Oeste 18 Oeste 0 -- -- 68
2019-12-02 12:00:00 9.3 11 Oeste 17 Oeste 0 -- -- 76
2019-12-02 11:00:00 7.3 8 Oeste 13 Noroeste 0 -- -- 85
2019-12-02 10:00:00 4.2 4 Oeste 8 Noroeste 0 -- -- 99
2019-12-02 09:00:00 0.6 4 Norte 5 Norte 0 -- -- 99
2019-12-02 08:00:00 -1.2 2 Noroeste 4 Noroeste 0 -- -- 98
2019-12-02 07:00:00 -1 2 Oeste 3 Oeste 0 -- -- 97
2019-12-02 06:00:00 -0.6 0 Calma 3 Sudoeste 0 -- -- 97
2019-12-02 05:00:00 -0.1 2 Noroeste -- -- 0 -- -- 97
2019-12-02 04:00:00 0.4 2 Noroeste 3 Noroeste 0 -- -- 97
2019-12-02 03:00:00 0.9 0 Calma 3 Oeste 0 -- -- 98
2019-12-02 02:00:00 2.5 0 Calma 4 Norte 0 -- -- 97
2019-12-02 01:00:00 4.5 3 Norte 10 Noroeste 0 -- -- 97
2019-12-02 00:00:00 5.5 5 Oeste 10 Oeste 0 -- -- 97
2019-12-01 23:00:00 3.9 4 Norte 6 Noroeste 0 -- -- 96
2019-12-01 22:00:00 3.9 4 Noroeste 6 Noroeste 0 -- -- 95
2019-12-01 21:00:00 5.3 0 Calma 9 Noroeste 0 -- -- 92
2019-12-01 20:00:00 6.4 6 Noroeste 10 Noroeste 0 -- -- 92
2019-12-01 19:00:00 6.1 0 Calma 9 Oeste 0 -- -- 82
2019-12-01 18:00:00 8.8 7 Oeste 19 Oeste 0 -- -- 80
2019-12-01 17:00:00 11.5 8 Oeste 15 Oeste 0 -- -- 70
2019-12-01 16:00:00 13 6 Oeste 16 Noroeste 0 -- -- 61
2019-12-01 15:00:00 13 5 Oeste 13 Oeste 0 -- -- 61
2019-12-01 14:00:00 12.6 4 Sudoeste 15 Sudoeste 0 -- -- 63
2019-12-01 13:00:00 11.6 10 Sudoeste 18 Sudoeste 0 -- -- 68
2019-12-01 12:00:00 10.6 4 Sudoeste 10 Sur 0 -- -- 78
2019-12-01 11:00:00 8.7 3 Sudeste 6 Sudeste 0 -- -- 94
2019-12-01 10:00:00 6.2 2 Sur 5 Este 0 -- -- 98
2019-12-01 09:00:00 2 0 Calma 6 Nordeste 0 -- -- 97
2019-12-01 08:00:00 1.5 3 Noroeste 4 Noroeste 0 -- -- 95
2019-12-01 07:00:00 1.9 2 Norte 3 Nordeste 0 -- -- 93
2019-12-01 06:00:00 3.4 0 Calma 9 Nordeste 0 -- -- 93
2019-12-01 05:00:00 5.1 5 Norte 8 Nordeste 0 -- -- 95
2019-12-01 04:00:00 5.9 4 Noroeste 13 Sudoeste 0 -- -- 92
2019-12-01 03:00:00 7.6 11 Sudoeste 19 Sudoeste 0 -- -- 94
2019-12-01 02:00:00 8.2 0 Calma 11 Sur 0 -- -- 92
2019-12-01 01:00:00 8.8 10 Sudeste 16 Sudeste 0.4 -- -- 91
2019-12-01 00:00:00 9 7 Sudoeste 14 Oeste 0 -- -- 92
2019-11-30 23:00:00 9.4 8 Noroeste 22 Oeste 0 -- -- 93
2019-11-30 22:00:00 9.8 6 Oeste 15 Sudoeste 0 -- -- 94
2019-11-30 21:00:00 10.5 7 Sudoeste 25 Oeste 1.2 -- -- 93
2019-11-30 20:00:00 11.1 11 Sudeste 21 Sudeste 0.4 -- -- 86
2019-11-30 19:00:00 11.7 12 Este 23 Sudeste 0 -- -- 79
2019-11-30 18:00:00 12.3 12 Sudeste 21 Sudeste 0 -- -- 75
2019-11-30 17:00:00 13.2 13 Este 26 Sudeste 0 -- -- 69
2019-11-30 16:00:00 14.4 14 Sudeste 30 Este 0 -- -- 63
2019-11-30 15:00:00 14.7 15 Este 26 Sudeste 0 -- -- 63
2019-11-30 14:00:00 14.5 18 Este 27 Este 0 -- -- 63
2019-11-30 13:00:00 11.4 14 Este 24 Este 0 -- -- 73
2019-11-30 12:00:00 11 16 Este 25 Este 0 -- -- 75
2019-11-30 11:00:00 9.3 16 Este 26 Este 0 -- -- 79
2019-11-30 10:00:00 8.2 14 Este 20 Este 0 -- -- 84
2019-11-30 09:00:00 7.4 12 Este 18 Este 0 -- -- 85
2019-11-30 08:00:00 6.8 13 Este 21 Este 0 -- -- 86
2019-11-30 07:00:00 6.8 14 Este 20 Este 0 -- -- 87
2019-11-30 06:00:00 5.6 9 Este 16 Este 0 -- -- 90
2019-11-30 05:00:00 4.8 9 Este 16 Este 0 -- -- 92
2019-11-30 04:00:00 3 2 Este 10 Este 0 -- -- 94
2019-11-30 03:00:00 3.1 2 Nordeste 9 Nordeste 0 -- -- 93
2019-11-30 02:00:00 3 2 Nordeste 2 Nordeste 0 -- -- 93
2019-11-30 01:00:00 3.7 0 Calma 6 Oeste 0 -- -- 91
2019-11-30 00:00:00 4.6 5 Oeste 6 Oeste 0 -- -- 90
2019-11-29 23:00:00 4.6 0 Calma 12 Sudeste 0 -- -- 89
2019-11-29 22:00:00 6.1 6 Norte 8 Norte 0 -- -- 89
2019-11-29 21:00:00 6.9 5 Noroeste 11 Sudoeste 0 -- -- 86
2019-11-29 20:00:00 7.5 4 Oeste 8 Noroeste 0 -- -- 79
2019-11-29 19:00:00 9.5 5 Noroeste 16 Oeste 0 -- -- 75
2019-11-29 18:00:00 12 11 Noroeste 21 Oeste 0 -- -- 64
2019-11-29 17:00:00 14.8 9 Oeste 24 Oeste 0 -- -- 59
2019-11-29 16:00:00 16.5 13 Oeste 32 Oeste 0 -- -- 54
2019-11-29 15:00:00 17.2 17 Oeste 38 Oeste 0 -- -- 50
2019-11-29 14:00:00 17.1 18 Oeste 36 Oeste 0 -- -- 52
2019-11-29 13:00:00 15.5 14 Oeste 28 Oeste 0 -- -- 66
2019-11-29 12:00:00 15.8 16 Noroeste 28 Noroeste 0 -- -- 59
2019-11-29 11:00:00 14.5 11 Oeste 23 Oeste 0 -- -- 75
2019-11-29 10:00:00 12.5 9 Oeste 18 Oeste 0 -- -- 86
2019-11-29 09:00:00 10.7 8 Noroeste 26 Oeste 0 -- -- 94
2019-11-29 08:00:00 11 13 Oeste 23 Oeste 0 -- -- 92
2019-11-29 07:00:00 9.5 4 Sudoeste 12 Sudoeste 0 -- -- 94
2019-11-29 06:00:00 9.7 5 Oeste 10 Sudoeste 0 -- -- 94
2019-11-29 05:00:00 9.5 0 Calma 7 Oeste 0 -- -- 94
2019-11-29 04:00:00 9.2 3 Oeste 5 Noroeste 0 -- -- 92
2019-11-29 03:00:00 9.4 0 Calma 4 Sudoeste 0 -- -- 91
2019-11-29 02:00:00 9.6 2 Norte 6 Norte 0 -- -- 90
2019-11-29 01:00:00 9.7 3 Nordeste 5 Norte 0 -- -- 88
2019-11-29 00:00:00 10.3 0 Calma 8 Sudoeste 0 -- -- 84
2019-11-28 23:00:00 11.5 4 Oeste 10 Sudoeste 0 -- -- 80
2019-11-28 22:00:00 11.7 2 Oeste 8 Oeste 0 -- -- 80
2019-11-28 21:00:00 11.6 4 Noroeste 10 Noroeste 0.2 -- -- 82
2019-11-28 20:00:00 12.5 5 Oeste 15 Sudoeste 0 -- -- 77
2019-11-28 19:00:00 12.6 6 Sudoeste 14 Sudoeste 0 -- -- 76
2019-11-28 18:00:00 13.5 8 Sudoeste 16 Oeste 0 -- -- 72
2019-11-28 17:00:00 14.4 3 Oeste 8 Sudoeste 0 -- -- 72
2019-11-28 16:00:00 15 0 Calma 11 Este 0 -- -- 71
2019-11-28 15:00:00 15.7 2 Oeste 13 Oeste 0 -- -- 68
2019-11-28 14:00:00 16.1 6 Oeste 14 Noroeste 0 -- -- 65
2019-11-28 13:00:00 15.3 8 Oeste 16 Noroeste 0 -- -- 67
2019-11-28 12:00:00 14.1 7 Oeste 13 Sudoeste 0 -- -- 71
2019-11-28 11:00:00 12.7 7 Sudoeste 11 Sudoeste 0 -- -- 79
2019-11-28 10:00:00 9.5 2 Oeste 5 Noroeste 0 -- -- 97
2019-11-28 09:00:00 6.4 0 Calma 5 Sur 0 -- -- 98
2019-11-28 08:00:00 6.5 2 Oeste 5 Norte 0 -- -- 97
2019-11-28 07:00:00 6.2 3 Noroeste 7 Noroeste 0 -- -- 97
2019-11-28 06:00:00 5.6 3 Oeste 5 Sudoeste 0 -- -- 97
2019-11-28 05:00:00 4.8 3 Noroeste 4 Sur 0 -- -- 95
2019-11-28 04:00:00 6 2 Noroeste 6 Nordeste 0 -- -- 96
2019-11-28 03:00:00 6.8 6 Nordeste 8 Nordeste 0 -- -- 96
2019-11-28 02:00:00 7.5 0 Calma 4 Oeste 0 -- -- 95
2019-11-28 01:00:00 7.8 0 Calma 6 Sudeste 0 -- -- 91
2019-11-28 00:00:00 9.1 4 Noroeste 7 Noroeste 0 -- -- 93
2019-11-27 23:00:00 9.5 2 Oeste 5 Norte 0 -- -- 92
2019-11-27 22:00:00 9.6 2 Nordeste 4 Sudeste 0 -- -- 92
2019-11-27 21:00:00 9.9 3 Sudoeste 9 Sudoeste 0 -- -- 89
2019-11-27 20:00:00 11.1 3 Noroeste 10 Norte 0.2 -- -- 81
2019-11-27 19:00:00 10.8 2 Noroeste 5 Norte 0 -- -- 81
2019-11-27 18:00:00 12.2 3 Noroeste 12 Noroeste 0 -- -- 74
2019-11-27 17:00:00 13.5 6 Noroeste 22 Oeste 0 -- -- 67
2019-11-27 16:00:00 15.4 11 Oeste 21 Oeste 0 -- -- 59
2019-11-27 15:00:00 14.9 8 Oeste 18 Oeste 0 -- -- 61
2019-11-27 14:00:00 14.4 9 Oeste 19 Oeste 0 -- -- 63
2019-11-27 06:00:00 -- -- -- -- -- -- -- -- --
2019-11-27 05:00:00 8.4 7 Noroeste 11 Noroeste 0 -- -- 97
2019-11-27 04:00:00 8.4 2 Oeste 8 Nordeste 0 -- -- 96
2019-11-27 03:00:00 9.7 3 Nordeste 13 Sudeste 0.8 -- -- 97
2019-11-27 02:00:00 9.8 7 Este 10 Sudeste 0.4 -- -- 96
2019-11-27 01:00:00 10.1 6 Sudeste 12 Este 1.2 -- -- 95
2019-11-27 00:00:00 10.3 7 Sudeste 16 Este 2.6 -- -- 94
2019-11-26 23:00:00 10.7 9 Este 17 Este 0 -- -- 91
2019-11-26 22:00:00 10.5 10 Este 15 Este 0 -- -- 91
2019-11-26 21:00:00 10.8 9 Este 21 Este 0 -- -- 89
2019-11-26 20:00:00 11.3 12 Este 19 Este 0.2 -- -- 89
2019-11-26 19:00:00 12.3 12 Este 17 Este 0 -- -- 83
2019-11-26 18:00:00 12.4 9 Este 18 Este 0 -- -- 83
2019-11-26 17:00:00 13.8 8 Este 15 Este 0 -- -- 78
2019-11-26 16:00:00 14.8 8 Este 13 Este 0 -- -- 73
2019-11-26 15:00:00 15.3 6 Sudeste 13 Este 0 -- -- 72
2019-11-26 14:00:00 14.5 8 Nordeste 14 Este 0 -- -- 74
2019-11-26 13:00:00 14 3 Nordeste 9 Este 0 -- -- 74
2019-11-26 12:00:00 12.6 7 Sudeste -- -- -- -- -- 83
2019-11-26 11:00:00 8.9 6 Sudeste 11 Este 0 -- -- 99
2019-11-26 10:00:00 7 3 Sudeste 7 Sudeste 0 -- -- 99
2019-11-26 09:00:00 4.4 3 Este 6 Este 0 -- -- 98
2019-11-26 08:00:00 3.3 3 Este 6 Nordeste 0 -- -- 97
2019-11-26 07:00:00 4.6 0 Calma 10 Nordeste 0 -- -- 96
2019-11-26 06:00:00 5.2 4 Nordeste 8 Este 0 -- -- 97
2019-11-26 05:00:00 5 3 Este 9 Este 0 -- -- 97
2019-11-26 04:00:00 5 5 Sudeste 9 Este 0 -- -- 95
2019-11-26 03:00:00 6.5 5 Noroeste 10 Noroeste 0 -- -- 97
2019-11-26 02:00:00 6.2 4 Noroeste 7 Noroeste 0 -- -- 96
2019-11-26 01:00:00 6.6 6 Noroeste 7 Noroeste 0 -- -- 95
2019-11-26 00:00:00 8 4 Noroeste 9 Noroeste 0 -- -- 94
2019-11-25 23:00:00 8.5 4 Noroeste 5 Noroeste 0 -- -- 93
2019-11-25 22:00:00 9.2 2 Oeste 10 Sudoeste 0 -- -- 91
2019-11-25 21:00:00 9.4 6 Sudoeste 11 Sudoeste 0 -- -- 90
2019-11-25 20:00:00 10.4 3 Noroeste 8 Oeste 0 -- -- 89
2019-11-25 19:00:00 11 4 Oeste 12 Noroeste 0 -- -- 87
2019-11-25 18:00:00 11.9 4 Sur 10 Oeste 0 -- -- 80
2019-11-25 17:00:00 14.3 5 Oeste 22 Oeste 0 -- -- 76
2019-11-25 16:00:00 16.4 11 Oeste 26 Oeste 0 -- -- 68
2019-11-25 15:00:00 16.1 15 Oeste 32 Oeste 0 -- -- 69
2019-11-25 14:00:00 15.8 15 Oeste 29 Oeste 0 -- -- 68
2019-11-25 13:00:00 14.9 10 Oeste 19 Oeste 0 -- -- 72
2019-11-25 12:00:00 12.9 12 Oeste 21 Oeste 0 -- -- 76
2019-11-25 11:00:00 10.8 8 Oeste 14 Oeste 0 -- -- 83
2019-11-25 10:00:00 8.7 4 Oeste 8 Sudoeste 0 -- -- 95
2019-11-25 09:00:00 6.2 5 Noroeste 9 Norte 0 -- -- 98
2019-11-25 08:00:00 5.5 3 Oeste 8 Oeste 0 -- -- 97
2019-11-25 07:00:00 5.7 3 Noroeste 5 Norte 0 -- -- 97
2019-11-25 06:00:00 5.3 0 Calma 4 Norte 0.2 -- -- 97
2019-11-25 05:00:00 5.5 3 Norte 6 Noroeste 0 -- -- 97
2019-11-25 04:00:00 4.3 3 Noroeste 8 Oeste 0 -- -- 95
2019-11-25 03:00:00 5.7 2 Noroeste 14 Norte 0 -- -- 95
2019-11-25 02:00:00 5.6 8 Noroeste 11 Norte 0 -- -- 96
2019-11-25 01:00:00 5.9 4 Oeste 6 Oeste 1.6 -- -- 95
2019-11-25 00:00:00 5.8 0 Calma 9 Oeste 0.6 -- -- 93
2019-11-24 23:00:00 5.4 4 Oeste 12 Sudoeste 0 -- -- 93
2019-11-24 22:00:00 4.4 6 Noroeste 9 Noroeste 0 -- -- 92
2019-11-24 21:00:00 5.3 4 Oeste 9 Sudoeste 0 -- -- 91
2019-11-24 20:00:00 5.9 0 Calma 15 Sudoeste 0 -- -- 85
2019-11-24 19:00:00 7.6 10 Oeste 20 Sudoeste 0 -- -- 85
2019-11-24 18:00:00 8.7 7 Oeste 25 Oeste 0 -- -- 80
2019-11-24 17:00:00 9.9 16 Oeste 33 Oeste 0 -- -- 76
2019-11-24 16:00:00 11.9 22 Oeste 46 Noroeste 0 -- -- 68
2019-11-24 15:00:00 11.8 24 Oeste 52 Oeste 0 -- -- 68
2019-11-24 14:00:00 11.4 35 Oeste 55 Oeste 0 -- -- 70
2019-11-24 13:00:00 11.1 29 Oeste 51 Oeste 0 -- -- 70
2019-11-24 12:00:00 9.8 28 Oeste 49 Oeste 0 -- -- 75
2019-11-24 11:00:00 9.5 25 Oeste 42 Oeste 0 -- -- 77
2019-11-24 10:00:00 8.4 15 Oeste 28 Oeste 0 -- -- 80
2019-11-24 09:00:00 6.6 15 Oeste 27 Noroeste 0 -- -- 86
2019-11-24 08:00:00 5.5 10 Oeste 21 Oeste 0 -- -- 89
2019-11-24 07:00:00 5.6 8 Oeste 24 Oeste 0 -- -- 88
2019-11-24 06:00:00 5.4 8 Oeste 26 Oeste 0 -- -- 88
2019-11-24 05:00:00 5.9 9 Oeste 29 Oeste 0 -- -- 87
2019-11-24 04:00:00 6.6 16 Oeste 33 Oeste 0 -- -- 85
2019-11-24 03:00:00 6.5 14 Oeste 30 Oeste 0 -- -- 85
2019-11-24 02:00:00 5.7 10 Oeste 25 Noroeste 0 -- -- 88
2019-11-24 01:00:00 6.6 15 Oeste 28 Oeste 0 -- -- 85
2019-11-24 00:00:00 6.3 11 Oeste 23 Oeste 0 -- -- 88
2019-11-23 23:00:00 6.5 12 Oeste 28 Oeste 0 -- -- 86
2019-11-23 22:00:00 6.8 16 Oeste 37 Oeste 0 -- -- 84
2019-11-23 21:00:00 7.2 21 Oeste 41 Oeste 0 -- -- 81
2019-11-23 20:00:00 7.7 23 Oeste 40 Oeste 0 -- -- 79
2019-11-23 19:00:00 7.8 21 Oeste 33 Oeste 0 -- -- 79
2019-11-23 18:00:00 8 15 Oeste 50 Oeste 0 -- -- 77
2019-11-23 17:00:00 9 32 Oeste 57 Oeste 0 -- -- 74
2019-11-23 16:00:00 9.4 26 Oeste 48 Oeste 0 -- -- 76
2019-11-23 15:00:00 9.1 28 Oeste 54 Oeste 0 -- -- 78
2019-11-23 14:00:00 9.9 30 Oeste 59 Oeste 0 -- -- 76
2019-11-23 13:00:00 9.9 30 Oeste 53 Oeste 0 -- -- 79
2019-11-23 12:00:00 8.8 24 Oeste 48 Oeste 0.2 -- -- 84
2019-11-23 11:00:00 7.8 18 Oeste 34 Oeste 0.4 -- -- 93
2019-11-23 10:00:00 7.2 11 Oeste 22 Oeste 0.4 -- -- 95
2019-11-23 09:00:00 6.7 9 Noroeste 20 Noroeste 2 -- -- 96
2019-11-23 08:00:00 5.3 5 Oeste 18 Sudoeste 0 -- -- 97
2019-11-23 07:00:00 3.8 0 Calma 8 Sudoeste 0 -- -- 96
2019-11-23 06:00:00 5.5 3 Nordeste 10 Este 0.2 -- -- 96
2019-11-23 05:00:00 6 4 Este 8 Sudeste 0 -- -- 97
2019-11-23 04:00:00 6.5 0 Calma 8 Este 0 -- -- 97
2019-11-23 03:00:00 6.5 5 Sudeste 9 Este 0 -- -- 97
2019-11-23 02:00:00 6.5 3 Este 12 Nordeste 0 -- -- 96
2019-11-23 01:00:00 6.9 6 Nordeste 11 Nordeste 0 -- -- 96
2019-11-23 00:00:00 7.7 5 Nordeste 12 Este 0.2 -- -- 96
2019-11-22 23:00:00 8.2 3 Este 30 Oeste 2.6 -- -- 95
2019-11-22 22:00:00 10.2 10 Sudeste 31 Este 6.8 -- -- 97
2019-11-22 21:00:00 10 19 Este 34 Este 2.2 -- -- 96
2019-11-22 20:00:00 9.6 23 Este 37 Este 0 -- -- 96
2019-11-22 19:00:00 9.5 25 Este 39 Este 0.2 -- -- 95
2019-11-22 18:00:00 9.4 21 Este 39 Este 0.8 -- -- 95
2019-11-22 17:00:00 9.4 22 Este 36 Este 0.4 -- -- 95
2019-11-22 16:00:00 9.2 23 Este 35 Este 0.4 -- -- 95
2019-11-22 15:00:00 8.8 23 Este 36 Este 0.2 -- -- 96
2019-11-22 14:00:00 7.2 18 Este 28 Este 1 -- -- 96
2019-11-22 13:00:00 6.6 19 Este 27 Este 1 -- -- 95
2019-11-22 12:00:00 6.4 17 Este 24 Este 0.6 -- -- 93
2019-11-22 11:00:00 6.3 12 Este 22 Este 0.2 -- -- 91
2019-11-22 10:00:00 6.2 14 Este 23 Sudeste 0 -- -- 88
2019-11-22 09:00:00 5.4 12 Este 20 Sudeste 0 -- -- 90
2019-11-22 08:00:00 5 10 Este 17 Este 0 -- -- 90
2019-11-22 07:00:00 5.4 9 Este 15 Este 0 -- -- 88
2019-11-22 06:00:00 5.8 10 Este 16 Este 0 -- -- 88
2019-11-22 05:00:00 5 9 Este 14 Este 0 -- -- 92
2019-11-22 04:00:00 4.6 9 Este 15 Este 0 -- -- 90
2019-11-22 03:00:00 4.7 8 Este 15 Este 0 -- -- 90
2019-11-22 02:00:00 5.1 9 Este 15 Nordeste 0 -- -- 90
2019-11-22 01:00:00 4.9 11 Este 17 Este 0 -- -- 91
2019-11-22 00:00:00 5.4 9 Este 15 Este 0 -- -- 90
2019-11-21 23:00:00 5.4 9 Este 14 Nordeste 0 -- -- 90
2019-11-21 22:00:00 6.1 9 Nordeste 13 Este 0 -- -- 88
2019-11-21 21:00:00 6.4 7 Este 11 Nordeste 0 -- -- 87
2019-11-21 20:00:00 6.9 6 Este 11 Este 0 -- -- 86
2019-11-21 19:00:00 8.2 6 Este 9 Este 0 -- -- 81
2019-11-21 18:00:00 9.7 5 Este 9 Este 0 -- -- 77
2019-11-21 17:00:00 10.7 6 Este 13 Sudeste 0 -- -- 73
2019-11-21 16:00:00 12 9 Sudeste 14 Sudeste 0 -- -- 67
2019-11-21 15:00:00 13 11 Sur 21 Sudeste 0 -- -- 58
2019-11-21 14:00:00 12 12 Sur 22 Sur 0 -- -- 62
2019-11-21 13:00:00 11.5 5 Sudeste 13 Sur 0 -- -- 68
2019-11-21 12:00:00 10.3 8 Este 13 Sudeste 0 -- -- 75
2019-11-21 11:00:00 8.2 9 Este 13 Este 0 -- -- 85
2019-11-21 10:00:00 6 8 Este 10 Este 0 -- -- 94
2019-11-21 09:00:00 4.6 6 Este 10 Este 0 -- -- 94
2019-11-21 08:00:00 -- -- -- -- -- -- -- -- --
2019-11-21 07:00:00 -- -- -- -- -- -- -- -- --
2019-11-21 06:00:00 -- -- -- -- -- -- -- -- --
2019-11-21 05:00:00 -- -- -- -- -- -- -- -- --
2019-11-21 04:00:00 -- -- -- -- -- -- -- -- --
2019-11-21 03:00:00 -- -- -- -- -- -- -- -- --
2019-11-21 02:00:00 -- -- -- -- -- -- -- -- --
2019-11-21 01:00:00 -- -- -- -- -- -- -- -- --
2019-11-21 00:00:00 -- -- -- -- -- -- -- -- --
2019-11-20 23:00:00 -- -- -- -- -- -- -- -- --
2019-11-20 22:00:00 -- -- -- -- -- -- -- -- --
2019-11-20 21:00:00 5.7 5 Este 12 Este 0 -- -- 82
2019-11-20 20:00:00 5.8 7 Este 12 Nordeste 0 -- -- 82
2019-11-20 19:00:00 6.1 5 Este 13 Este 0 -- -- 79
2019-11-20 18:00:00 6.8 8 Este 13 Este 0 -- -- 76
2019-11-20 17:00:00 8.3 9 Este 17 Sudeste 0 -- -- 70
2019-11-20 16:00:00 9.7 11 Este 20 Este 0 -- -- 64
2019-11-20 15:00:00 9.7 12 Este 21 Sudeste 0 -- -- 64
2019-11-20 14:00:00 8.6 13 Sudeste 22 Este 0 -- -- 67
2019-11-20 13:00:00 8.3 13 Sudeste 23 Este 0 -- -- 67
2019-11-20 12:00:00 6.6 11 Este 18 Sudeste 0 -- -- 71
2019-11-20 11:00:00 5.6 11 Este -- -- -- -- -- 75
2019-11-20 10:00:00 3.9 12 Este 18 Este 0 -- -- 83
2019-11-20 09:00:00 1.3 8 Este 14 Este 0 -- -- 92
2019-11-20 08:00:00 0.8 8 Este 13 Este 0 -- -- 93
2019-11-20 07:00:00 0.4 3 Este 12 Nordeste 0 -- -- 92
2019-11-20 06:00:00 0.8 8 Nordeste 13 Este 0 -- -- 92
2019-11-20 05:00:00 1.1 8 Este 13 Este 0 -- -- 92
2019-11-20 04:00:00 1 8 Este 15 Este 0 -- -- 93
2019-11-20 03:00:00 0.6 8 Este 15 Este 0 -- -- 92
2019-11-20 02:00:00 1 9 Nordeste 14 Este 0 -- -- 91
2019-11-20 01:00:00 0.9 4 Este 10 Nordeste 0 -- -- 90
2019-11-20 00:00:00 1.3 8 Nordeste 12 Nordeste 0 -- -- 91
2019-11-19 23:00:00 0.8 5 Nordeste 8 Nordeste 0 -- -- 92
2019-11-19 22:00:00 1.4 6 Nordeste 10 Nordeste 0 -- -- 93
2019-11-19 21:00:00 -0.2 0 Calma 4 Nordeste 0 -- -- 86
2019-11-19 20:00:00 1.2 0 Calma 3 Nordeste 0 -- -- 84
2019-11-19 19:00:00 3 3 Nordeste 4 Nordeste 0 -- -- 82
2019-11-19 18:00:00 5.9 0 Calma 6 Oeste 0 -- -- 71
2019-11-19 17:00:00 10 4 Oeste 17 Oeste 0 -- -- 59
2019-11-19 16:00:00 11.8 10 Oeste 23 Sudoeste 0 -- -- 53
2019-11-19 15:00:00 11.7 10 Oeste 20 Sudoeste 0 -- -- 52
2019-11-19 14:00:00 11 10 Oeste 21 Sudoeste 0 -- -- 50
2019-11-19 13:00:00 10.3 13 Sudoeste 21 Sudoeste 0 -- -- 56
2019-11-19 12:00:00 8.3 9 Oeste 14 Oeste 0 -- -- 59
2019-11-19 11:00:00 6.4 9 Noroeste 17 Noroeste 0 -- -- 73
2019-11-19 10:00:00 4.1 7 Oeste 15 Oeste 0 -- -- 90
2019-11-19 09:00:00 -1.1 3 Noroeste 5 Oeste 0 -- -- 95
2019-11-19 08:00:00 -2.7 0 Calma 2 Norte 0 -- -- 90
2019-11-19 07:00:00 -1.1 0 Calma 8 Noroeste 0 -- -- 87
2019-11-19 06:00:00 1.1 5 Noroeste 23 Noroeste 0 -- -- 87
2019-11-19 05:00:00 1.5 9 Oeste 21 Noroeste 0 -- -- 88
2019-11-19 04:00:00 1.6 6 Oeste 15 Oeste 0 -- -- 86
2019-11-19 03:00:00 1.9 10 Oeste 19 Oeste 0 -- -- 84
2019-11-19 02:00:00 2.2 5 Oeste 20 Noroeste 0 -- -- 82
2019-11-19 01:00:00 2.1 9 Oeste 18 Oeste 0 -- -- 85
2019-11-19 00:00:00 2.3 8 Oeste 21 Oeste 0 -- -- 83
2019-11-18 23:00:00 3.2 10 Noroeste 22 Oeste 0 -- -- 78
2019-11-18 22:00:00 3.5 13 Oeste 25 Oeste 0 -- -- 78
2019-11-18 21:00:00 3.8 11 Noroeste 31 Oeste 0 -- -- 72
2019-11-18 20:00:00 4.2 13 Oeste 25 Oeste 0 -- -- 73
2019-11-18 19:00:00 4.3 8 Oeste 19 Oeste 0 -- -- 69
2019-11-18 18:00:00 5.9 12 Noroeste 30 Noroeste 0 -- -- 64
2019-11-18 17:00:00 8.8 19 Noroeste 34 Noroeste 0 -- -- 52
2019-11-18 16:00:00 10.2 21 Noroeste 33 Noroeste 0 -- -- 47
2019-11-18 15:00:00 10.1 20 Noroeste 34 Noroeste 0 -- -- 48
2019-11-18 14:00:00 10.1 20 Noroeste 36 Noroeste 0 -- -- 49
2019-11-18 13:00:00 11 23 Noroeste 46 Noroeste 0 -- -- 47
2019-11-18 12:00:00 10.4 24 Noroeste 37 Noroeste 0 -- -- 50
2019-11-18 11:00:00 9.2 21 Noroeste 32 Noroeste 0 -- -- 55
2019-11-18 10:00:00 5.8 13 Noroeste 31 Oeste 0 -- -- 78
2019-11-18 09:00:00 4.8 15 Oeste 34 Oeste 0 -- -- 84
2019-11-18 08:00:00 4.6 18 Oeste 37 Oeste 0 -- -- 90
2019-11-18 07:00:00 4.8 22 Oeste 36 Oeste 0 -- -- 93
2019-11-18 06:00:00 4.8 13 Oeste 28 Oeste 0 -- -- 94
2019-11-18 05:00:00 5.5 13 Oeste 24 Oeste 0 -- -- 97
2019-11-18 04:00:00 5.9 8 Oeste 17 Sudoeste 0 -- -- 98
2019-11-18 03:00:00 5.7 4 Oeste 10 Sudoeste 0.2 -- -- 98
2019-11-18 02:00:00 4.7 3 Oeste 6 Oeste 0 -- -- 98
2019-11-18 01:00:00 3.4 3 Sudoeste 5 Sudoeste 0 -- -- 97
2019-11-18 00:00:00 3.7 3 Noroeste 8 Oeste 0 -- -- 95
2019-11-17 23:00:00 4.7 3 Oeste 7 Oeste 0 -- -- 94
2019-11-17 22:00:00 5.7 4 Noroeste 7 Oeste 0 -- -- 94
2019-11-17 21:00:00 6.6 4 Oeste 12 Sudoeste 0 -- -- 93
2019-11-17 20:00:00 6.8 6 Sudoeste 10 Sudoeste 0 -- -- 93
2019-11-17 19:00:00 6.7 5 Oeste 12 Sudoeste 0 -- -- 93
2019-11-17 18:00:00 6.7 7 Sudoeste 15 Sudoeste 0 -- -- 91
2019-11-17 17:00:00 7.5 8 Oeste 20 Oeste 0 -- -- 88
2019-11-17 16:00:00 8.5 6 Oeste 16 Sudoeste 0 -- -- 82
2019-11-17 15:00:00 9 9 Oeste 16 Oeste 0 -- -- 73
2019-11-17 14:00:00 9 9 Oeste 17 Oeste 0 -- -- 73
2019-11-17 13:00:00 9 12 Oeste 28 Oeste 0 -- -- 74
2019-11-17 12:00:00 8.8 15 Oeste 29 Sudoeste 0 -- -- 73
2019-11-17 11:00:00 8 10 Oeste -- -- -- -- -- 77
2019-11-17 10:00:00 5.9 13 Sudoeste 21 Sudoeste 0 -- -- 85
2019-11-17 09:00:00 3.8 2 Oeste 12 Sudoeste 0 -- -- 92
2019-11-17 08:00:00 3.7 5 Oeste 16 Sudoeste 0 -- -- 91
2019-11-17 07:00:00 2.5 6 Oeste 12 Oeste 0 -- -- 95
2019-11-17 06:00:00 1.5 6 Sudoeste 9 Sudoeste 0 -- -- 95
2019-11-17 05:00:00 1.9 4 Sudoeste 12 Sudoeste 0 -- -- 95
2019-11-17 04:00:00 1.2 4 Sudoeste 7 Sudoeste 0 -- -- 95
2019-11-17 03:00:00 2 5 Sudoeste 8 Sudoeste 0 -- -- 94
2019-11-17 02:00:00 2.5 4 Oeste 15 Noroeste 0 -- -- 92
2019-11-17 01:00:00 2.3 8 Oeste 14 Noroeste 0 -- -- 94
2019-11-17 00:00:00 3.2 9 Oeste 23 Oeste 0 -- -- 94
2019-11-16 23:00:00 3 6 Oeste 15 Oeste 0 -- -- 95
2019-11-16 22:00:00 1.7 6 Oeste 9 Oeste 0 -- -- 96
2019-11-16 21:00:00 2.6 4 Oeste 9 Oeste 0 -- -- 95
2019-11-16 20:00:00 3.5 5 Oeste 10 Noroeste 0 -- -- 95
2019-11-16 19:00:00 3.3 4 Noroeste 8 Noroeste 0 -- -- 93
2019-11-16 18:00:00 4.5 3 Noroeste 8 Oeste 0 -- -- 92
2019-11-16 17:00:00 5.5 5 Noroeste 12 Oeste 0 -- -- 90
2019-11-16 16:00:00 5.5 6 Noroeste 11 Noroeste 0.2 -- -- 90
2019-11-16 15:00:00 5.5 5 Noroeste 29 Oeste 0.4 -- -- 90
2019-11-16 14:00:00 6.5 14 Oeste 28 Oeste 0.2 -- -- 82
2019-11-16 13:00:00 7.2 5 Oeste 13 Oeste 0 -- -- 74
2019-11-16 12:00:00 6 4 Este 14 Nordeste 0 -- -- 79
2019-11-16 11:00:00 4.5 5 Este 13 Este 0 -- -- 82
2019-11-16 10:00:00 5.2 6 Norte 12 Noroeste 0 -- -- 78
2019-11-16 09:00:00 1.8 6 Noroeste 14 Oeste 0 -- -- 93
2019-11-16 08:00:00 1.4 8 Oeste 23 Oeste 0 -- -- 93
2019-11-16 07:00:00 0.8 5 Oeste 15 Oeste 0 -- -- 94
2019-11-16 06:00:00 0.8 9 Oeste 17 Noroeste 0 -- -- 94
2019-11-16 05:00:00 1.1 14 Noroeste 25 Oeste 0 -- -- 94
2019-11-16 04:00:00 1.4 10 Oeste 23 Oeste 0 -- -- 94
2019-11-16 03:00:00 1.2 9 Sudoeste 17 Sudoeste 0 -- -- 95
2019-11-16 02:00:00 1 6 Sudoeste 14 Oeste 0 -- -- 94
2019-11-16 01:00:00 1.6 10 Sudoeste 14 Sudoeste 0 -- -- 92
2019-11-16 00:00:00 2.3 7 Oeste 19 Noroeste 0 -- -- 91